sensor_id;sensor_type;location;lat;lon;timestamp;pressure;altitude;pressure_sealevel;temperature;humidity
61113;BME280;47184;57.998;56.184;2023-12-04T00:05:44;100226.38;;;23.03;32.04
61113;BME280;47184;57.998;56.184;2023-12-04T00:15:45;100221.56;;;23.05;31.87
61113;BME280;47184;57.998;56.184;2023-12-04T00:25:47;100194.59;;;23.02;32.00
61113;BME280;47184;57.998;56.184;2023-12-04T00:35:48;100211.31;;;22.99;31.75
61113;BME280;47184;57.998;56.184;2023-12-04T00:45:49;100193.41;;;23.05;31.51
61113;BME280;47184;57.998;56.184;2023-12-04T00:55:50;100193.97;;;23.08;31.42
61113;BME280;47184;57.998;56.184;2023-12-04T01:05:51;100178.25;;;23.11;31.28
61113;BME280;47184;57.998;56.184;2023-12-04T01:15:52;100142.22;;;23.07;31.03
61113;BME280;47184;57.998;56.184;2023-12-04T01:25:53;100085.28;;;22.86;31.33
61113;BME280;47184;57.998;56.184;2023-12-04T01:35:54;100094.91;;;22.98;31.31
61113;BME280;47184;57.998;56.184;2023-12-04T01:45:55;100090.31;;;22.99;31.12
61113;BME280;47184;57.998;56.184;2023-12-04T01:55:56;100053.53;;;22.85;31.19
61113;BME280;47184;57.998;56.184;2023-12-04T02:05:59;100065.25;;;23.03;31.30
61113;BME280;47184;57.998;56.184;2023-12-04T02:16:03;100045.09;;;23.13;31.06
61113;BME280;47184;57.998;56.184;2023-12-04T02:26:12;100002.78;;;23.17;30.94
61113;BME280;47184;57.998;56.184;2023-12-04T02:36:15;99988.09;;;23.18;30.89
61113;BME280;47184;57.998;56.184;2023-12-04T02:46:17;99932.28;;;23.12;30.45
61113;BME280;47184;57.998;56.184;2023-12-04T02:56:18;99872.69;;;22.99;30.62
61113;BME280;47184;57.998;56.184;2023-12-04T03:06:19;99876.13;;;23.10;30.72
61113;BME280;47184;57.998;56.184;2023-12-04T03:16:20;99778.16;;;22.82;30.54
61113;BME280;47184;57.998;56.184;2023-12-04T03:26:21;99803.94;;;23.04;30.78
61113;BME280;47184;57.998;56.184;2023-12-04T03:36:22;99810.72;;;23.08;30.59
61113;BME280;47184;57.998;56.184;2023-12-04T03:46:23;99800.13;;;23.13;30.61
61113;BME280;47184;57.998;56.184;2023-12-04T03:56:24;99781.53;;;23.17;30.55
61113;BME280;47184;57.998;56.184;2023-12-04T04:06:25;99756.63;;;23.12;30.35
61113;BME280;47184;57.998;56.184;2023-12-04T04:16:26;99757.97;;;23.16;30.49
61113;BME280;47184;57.998;56.184;2023-12-04T04:26:27;99673.53;;;22.81;30.51
61113;BME280;47184;57.998;56.184;2023-12-04T04:36:28;99720.13;;;23.04;30.44
61113;BME280;47184;57.998;56.184;2023-12-04T04:46:30;99673.84;;;22.95;30.63
61113;BME280;47184;57.998;56.184;2023-12-04T04:56:31;99660.75;;;22.90;30.79
61113;BME280;47184;57.998;56.184;2023-12-04T05:06:32;99656.81;;;23.01;30.57
61113;BME280;47184;57.998;56.184;2023-12-04T05:16:33;99626.22;;;23.05;30.83
61113;BME280;47184;57.998;56.184;2023-12-04T05:26:34;99585.28;;;23.05;30.49
61113;BME280;47184;57.998;56.184;2023-12-04T05:36:35;99566.66;;;23.09;30.61
61113;BME280;47184;57.998;56.184;2023-12-04T05:46:36;99403.13;;;22.20;30.45
61113;BME280;47184;57.998;56.184;2023-12-04T05:56:37;99497.25;;;23.03;30.37
61113;BME280;47184;57.998;56.184;2023-12-04T06:06:38;99486.34;;;22.95;30.75
61113;BME280;47184;57.998;56.184;2023-12-04T06:16:39;99440.59;;;22.97;30.81
61113;BME280;47184;57.998;56.184;2023-12-04T06:26:41;99429.31;;;23.00;30.53
61113;BME280;47184;57.998;56.184;2023-12-04T06:36:46;99404.03;;;23.06;30.33
61113;BME280;47184;57.998;56.184;2023-12-04T06:46:48;99398.19;;;23.10;30.02
61113;BME280;47184;57.998;56.184;2023-12-04T06:56:52;99382.19;;;23.06;30.08
61113;BME280;47184;57.998;56.184;2023-12-04T07:06:53;99354.22;;;23.04;29.88
61113;BME280;47184;57.998;56.184;2023-12-04T07:16:54;99323.88;;;22.99;29.82
61113;BME280;47184;57.998;56.184;2023-12-04T07:26:56;99274.41;;;22.94;29.66
61113;BME280;47184;57.998;56.184;2023-12-04T07:36:57;99235.50;;;22.92;29.56
61113;BME280;47184;57.998;56.184;2023-12-04T07:46:58;99178.56;;;22.89;29.50
61113;BME280;47184;57.998;56.184;2023-12-04T07:56:59;99176.44;;;22.99;29.68
61113;BME280;47184;57.998;56.184;2023-12-04T08:07:00;99159.97;;;23.07;29.31
61113;BME280;47184;57.998;56.184;2023-12-04T08:17:01;99097.81;;;22.80;29.39
61113;BME280;47184;57.998;56.184;2023-12-04T08:27:02;99123.72;;;22.99;29.15
61113;BME280;47184;57.998;56.184;2023-12-04T08:37:03;99103.09;;;22.96;29.30
61113;BME280;47184;57.998;56.184;2023-12-04T08:47:04;99087.28;;;23.06;29.31
61113;BME280;47184;57.998;56.184;2023-12-04T08:57:05;99061.38;;;23.02;29.36
61113;BME280;47184;57.998;56.184;2023-12-04T09:07:06;99041.88;;;23.05;29.27
61113;BME280;47184;57.998;56.184;2023-12-04T09:17:08;99002.19;;;22.88;29.04
61113;BME280;47184;57.998;56.184;2023-12-04T09:27:08;99007.44;;;23.04;29.03
61113;BME280;47184;57.998;56.184;2023-12-04T09:37:09;98994.72;;;23.12;28.91
61113;BME280;47184;57.998;56.184;2023-12-04T09:47:10;98958.84;;;23.15;28.91
61113;BME280;47184;57.998;56.184;2023-12-04T09:57:12;98931.53;;;23.15;28.73
61113;BME280;47184;57.998;56.184;2023-12-04T10:07:13;98885.25;;;23.06;28.69
61113;BME280;47184;57.998;56.184;2023-12-04T10:17:15;98868.47;;;23.10;28.83
61113;BME280;47184;57.998;56.184;2023-12-04T10:27:21;98868.84;;;23.06;28.88
61113;BME280;47184;57.998;56.184;2023-12-04T10:37:29;98852.47;;;23.06;28.89
61113;BME280;47184;57.998;56.184;2023-12-04T10:47:30;98858.69;;;23.00;28.65
61113;BME280;47184;57.998;56.184;2023-12-04T10:57:37;98856.22;;;23.05;28.50
61113;BME280;47184;57.998;56.184;2023-12-04T11:07:50;98854.16;;;23.07;28.50
61113;BME280;47184;57.998;56.184;2023-12-04T11:17:59;98850.00;;;23.12;28.30
61113;BME280;47184;57.998;56.184;2023-12-04T11:28:02;98833.81;;;23.10;28.37
61113;BME280;47184;57.998;56.184;2023-12-04T11:38:06;98799.88;;;22.98;28.17
61113;BME280;47184;57.998;56.184;2023-12-04T11:48:10;98818.81;;;22.99;28.31
61113;BME280;47184;57.998;56.184;2023-12-04T11:58:11;98809.31;;;22.95;28.32
61113;BME280;47184;57.998;56.184;2023-12-04T12:08:12;98804.84;;;22.94;28.10
61113;BME280;47184;57.998;56.184;2023-12-04T12:18:14;98785.09;;;22.92;28.31
61113;BME280;47184;57.998;56.184;2023-12-04T12:28:15;98780.19;;;23.02;28.16
61113;BME280;47184;57.998;56.184;2023-12-04T12:38:16;98761.72;;;23.04;28.06
61113;BME280;47184;57.998;56.184;2023-12-04T12:48:17;98726.09;;;22.91;28.13
61113;BME280;47184;57.998;56.184;2023-12-04T12:58:19;98712.84;;;22.88;27.81
61113;BME280;47184;57.998;56.184;2023-12-04T13:08:21;98695.16;;;22.84;27.84
61113;BME280;47184;57.998;56.184;2023-12-04T13:18:22;98701.94;;;22.88;27.91
61113;BME280;47184;57.998;56.184;2023-12-04T13:28:23;98714.53;;;22.89;27.91
61113;BME280;47184;57.998;56.184;2023-12-04T13:38:24;98692.69;;;22.89;27.98
61113;BME280;47184;57.998;56.184;2023-12-04T13:48:25;98685.03;;;22.99;27.98
61113;BME280;47184;57.998;56.184;2023-12-04T13:58:27;98672.69;;;23.03;27.81
61113;BME280;47184;57.998;56.184;2023-12-04T14:08:37;98626.34;;;22.89;27.59
61113;BME280;47184;57.998;56.184;2023-12-04T14:18:39;98634.47;;;23.03;27.84
61113;BME280;47184;57.998;56.184;2023-12-04T14:28:40;98604.09;;;22.85;27.68
61113;BME280;47184;57.998;56.184;2023-12-04T14:38:41;98625.53;;;22.95;27.91
61113;BME280;47184;57.998;56.184;2023-12-04T14:48:42;98621.31;;;22.92;27.96
61113;BME280;47184;57.998;56.184;2023-12-04T14:58:43;98565.78;;;22.72;27.52
61113;BME280;47184;57.998;56.184;2023-12-04T15:08:44;98544.13;;;22.63;27.53
61113;BME280;47184;57.998;56.184;2023-12-04T15:18:57;98538.94;;;22.75;27.40
61113;BME280;47184;57.998;56.184;2023-12-04T15:29:13;98556.31;;;23.02;27.32
61113;BME280;47184;57.998;56.184;2023-12-04T15:39:18;98548.72;;;22.98;27.42
61113;BME280;47184;57.998;56.184;2023-12-04T15:49:20;98536.13;;;22.97;27.28
61113;BME280;47184;57.998;56.184;2023-12-04T15:59:21;98510.00;;;22.81;27.41
61113;BME280;47184;57.998;56.184;2023-12-04T16:09:22;98510.88;;;22.88;27.57
61113;BME280;47184;57.998;56.184;2023-12-04T16:19:23;98502.47;;;22.83;27.69
61113;BME280;47184;57.998;56.184;2023-12-04T16:29:24;98492.38;;;22.77;27.72
61113;BME280;47184;57.998;56.184;2023-12-04T16:39:33;98485.91;;;22.91;27.70
61113;BME280;47184;57.998;56.184;2023-12-04T16:49:35;98491.22;;;22.99;27.53
61113;BME280;47184;57.998;56.184;2023-12-04T16:59:36;98488.31;;;23.01;27.74
61113;BME280;47184;57.998;56.184;2023-12-04T17:09:37;98459.03;;;22.95;27.74
61113;BME280;47184;57.998;56.184;2023-12-04T17:19:39;98450.00;;;22.94;27.88
61113;BME280;47184;57.998;56.184;2023-12-04T17:29:40;98434.06;;;22.91;28.25
61113;BME280;47184;57.998;56.184;2023-12-04T17:39:43;98413.78;;;22.65;28.35
61113;BME280;47184;57.998;56.184;2023-12-04T17:49:44;98455.88;;;22.91;28.51
61113;BME280;47184;57.998;56.184;2023-12-04T17:59:46;98450.44;;;22.91;28.71
61113;BME280;47184;57.998;56.184;2023-12-04T18:09:47;98463.94;;;22.99;28.57
61113;BME280;47184;57.998;56.184;2023-12-04T18:19:48;98445.47;;;23.01;28.91
61113;BME280;47184;57.998;56.184;2023-12-04T18:29:54;98441.25;;;22.99;29.04
61113;BME280;47184;57.998;56.184;2023-12-04T18:39:55;98432.22;;;22.98;29.48
61113;BME280;47184;57.998;56.184;2023-12-04T18:49:59;98457.41;;;23.00;29.51
61113;BME280;47184;57.998;56.184;2023-12-04T19:00:01;98468.97;;;23.02;29.55
61113;BME280;47184;57.998;56.184;2023-12-04T19:10:02;98455.97;;;23.04;29.78
61113;BME280;47184;57.998;56.184;2023-12-04T19:20:05;98454.28;;;23.03;29.95
61113;BME280;47184;57.998;56.184;2023-12-04T19:30:07;98448.59;;;22.98;29.89
61113;BME280;47184;57.998;56.184;2023-12-04T19:40:08;98467.75;;;23.12;29.67
61113;BME280;47184;57.998;56.184;2023-12-04T19:50:12;98478.91;;;23.17;30.54
61113;BME280;47184;57.998;56.184;2023-12-04T20:00:14;98488.53;;;23.06;30.34
61113;BME280;47184;57.998;56.184;2023-12-04T20:10:15;98513.53;;;23.10;30.15
61113;BME280;47184;57.998;56.184;2023-12-04T20:20:22;98510.16;;;23.07;30.08
61113;BME280;47184;57.998;56.184;2023-12-04T20:30:23;98490.72;;;22.89;30.01
61113;BME280;47184;57.998;56.184;2023-12-04T20:40:25;98526.94;;;23.04;30.06
61113;BME280;47184;57.998;56.184;2023-12-04T20:50:26;98535.53;;;23.01;30.28
61113;BME280;47184;57.998;56.184;2023-12-04T21:00:27;98537.22;;;23.02;30.71
61113;BME280;47184;57.998;56.184;2023-12-04T21:10:31;98544.63;;;23.08;30.17
61113;BME280;47184;57.998;56.184;2023-12-04T21:20:32;98543.31;;;23.04;30.62
61113;BME280;47184;57.998;56.184;2023-12-04T21:30:33;98561.38;;;23.05;30.54
61113;BME280;47184;57.998;56.184;2023-12-04T21:40:34;98595.03;;;23.13;30.45
61113;BME280;47184;57.998;56.184;2023-12-04T21:50:36;98595.78;;;23.00;30.58
61113;BME280;47184;57.998;56.184;2023-12-04T22:00:37;98629.47;;;23.14;31.10
61113;BME280;47184;57.998;56.184;2023-12-04T22:10:38;98631.97;;;23.08;31.54
61113;BME280;47184;57.998;56.184;2023-12-04T22:20:39;98648.75;;;23.05;31.83
61113;BME280;47184;57.998;56.184;2023-12-04T22:30:40;98648.31;;;23.02;31.85
61113;BME280;47184;57.998;56.184;2023-12-04T22:40:42;98669.97;;;23.03;31.55
61113;BME280;47184;57.998;56.184;2023-12-04T22:50:44;98678.59;;;23.14;31.78
61113;BME280;47184;57.998;56.184;2023-12-04T23:00:45;98695.84;;;23.14;32.04
61113;BME280;47184;57.998;56.184;2023-12-04T23:10:46;98700.84;;;23.11;32.25
61113;BME280;47184;57.998;56.184;2023-12-04T23:20:47;98726.47;;;23.10;32.36
61113;BME280;47184;57.998;56.184;2023-12-04T23:30:48;98732.38;;;23.13;32.24
61113;BME280;47184;57.998;56.184;2023-12-04T23:40:49;98743.28;;;23.06;32.27
61113;BME280;47184;57.998;56.184;2023-12-04T23:50:50;98770.56;;;23.06;32.26
